Time,TemperatureF,DewpointF,PressureIn,WindDirection,WindDirectionDegrees,WindSpeedMPH,WindSpeedGustMPH,Humidity,HourlyPrecipIn,Conditions,Clouds,dailyrainin,SolarRadiationWatts/m^2,SoftwareType,DateUTC
2013-07-03 00:01:00,77.2,75.3,30.09,South,175,2.7,6.9,94,0.00,RA,,0.00,0.0,WeatherDisplay:10.37,2013-07-03 04:01:00,
2013-07-03 00:03:00,77.2,75.3,30.09,South,185,0.3,2.3,94,0.00,RA,,0.00,0.0,WeatherDisplay:10.37,2013-07-03 04:03:00,
2013-07-03 00:04:00,77.1,75.2,30.09,South,185,0.0,0.0,94,0.00,RA,,0.00,0.0,WeatherDisplay:10.37,2013-07-03 04:04:00,
2013-07-03 00:09:00,77.1,75.6,30.09,SE,146,1.0,4.0,95,0.00,RA,,0.00,0.0,WeatherDisplay:10.37,2013-07-03 04:09:00,
2013-07-03 00:14:00,77.0,75.5,30.09,SE,126,1.7,3.5,95,0.00,,,0.00,0.0,WeatherDisplay:10.37,2013-07-03 04:14:00,
2013-07-03 00:19:00,76.9,75.4,30.08,South,180,2.8,4.6,95,0.00,,,0.00,0.0,WeatherDisplay:10.37,2013-07-03 04:19:00,
2013-07-03 00:24:00,76.8,75.3,30.08,South,189,1.4,3.5,95,0.00,,,0.00,0.0,WeatherDisplay:10.37,2013-07-03 04:24:00,
2013-07-03 00:29:00,76.8,75.6,30.08,SE,126,1.9,5.0,96,0.00,,,0.00,0.0,WeatherDisplay:10.37,2013-07-03 04:29:00,
2013-07-03 00:31:00,76.8,75.6,30.08,SE,127,2.6,5.8,96,0.00,,,0.00,0.0,WeatherDisplay:10.37,2013-07-03 04:31:00,
2013-07-03 00:32:00,76.8,75.6,30.08,SE,139,2.4,3.5,96,0.00,,,0.00,0.0,WeatherDisplay:10.37,2013-07-03 04:32:00,
2013-07-03 00:37:00,76.7,75.5,30.07,SE,144,0.0,0.0,96,0.00,,,0.00,0.0,WeatherDisplay:10.37,2013-07-03 04:37:00,
2013-07-03 00:42:00,76.7,75.5,30.07,SE,127,5.4,9.2,96,0.00,,,0.00,0.0,WeatherDisplay:10.37,2013-07-03 04:42:00,
2013-07-03 00:46:00,76.6,75.4,30.07,SSE,155,0.6,3.5,96,0.00,,,0.00,0.0,WeatherDisplay:10.37,2013-07-03 04:46:00,
2013-07-03 00:51:00,76.5,75.3,30.07,ESE,119,1.9,8.0,96,0.00,,,0.00,0.0,WeatherDisplay:10.37,2013-07-03 04:51:00,
2013-07-03 00:53:00,76.5,75.3,30.07,ESE,110,0.7,6.9,96,0.00,,,0.00,0.0,WeatherDisplay:10.37,2013-07-03 04:53:00,
2013-07-03 00:58:00,76.5,75.3,30.07,SE,142,1.0,1.2,96,0.00,,,0.00,0.0,WeatherDisplay:10.37,2013-07-03 04:58:00,
2013-07-03 01:03:00,76.5,75.6,30.07,ESE,103,0.5,1.2,97,0.00,,,0.00,0.0,WeatherDisplay:10.37,2013-07-03 05:03:00,
2013-07-03 01:07:00,76.5,75.3,30.07,SE,142,0.6,3.5,96,0.00,,,0.00,0.0,WeatherDisplay:10.37,2013-07-03 05:07:00,
2013-07-03 01:12:00,76.5,75.3,30.07,SE,138,0.8,3.5,96,0.00,,,0.00,0.0,WeatherDisplay:10.37,2013-07-03 05:12:00,
2013-07-03 01:17:00,76.5,75.6,30.08,ESE,118,1.4,2.3,97,0.00,,,0.00,0.0,WeatherDisplay:10.37,2013-07-03 05:17:00,
2013-07-03 01:19:00,76.5,75.6,30.07,East,98,2.2,3.5,97,0.00,,,0.00,0.0,WeatherDisplay:10.37,2013-07-03 05:19:00,
2013-07-03 01:24:00,76.4,75.5,30.08,East,81,2.6,4.6,97,0.00,,,0.00,0.0,WeatherDisplay:10.37,2013-07-03 05:24:00,
2013-07-03 01:30:00,76.5,75.6,30.08,NNE,24,1.4,5.0,97,0.00,,,0.00,0.0,WeatherDisplay:10.37,2013-07-03 05:30:00,
2013-07-03 01:35:00,76.6,75.4,30.08,East,92,1.9,6.0,96,0.00,,,0.00,0.0,WeatherDisplay:10.37,2013-07-03 05:35:00,
2013-07-03 01:40:00,76.4,75.2,30.08,SSE,147,2.2,4.6,96,0.00,,,0.00,0.0,WeatherDisplay:10.37,2013-07-03 05:40:00,
2013-07-03 01:45:00,76.2,75.0,30.08,ENE,69,0.0,3.5,96,0.00,,,0.00,0.0,WeatherDisplay:10.37,2013-07-03 05:45:00,
2013-07-03 01:50:00,76.1,74.9,30.08,SE,131,0.3,2.3,96,0.00,,,0.00,0.0,WeatherDisplay:10.37,2013-07-03 05:50:00,
2013-07-03 01:54:00,76.1,74.9,30.08,WNW,286,0.4,1.2,96,0.00,,,0.00,0.0,WeatherDisplay:10.37,2013-07-03 05:54:00,
2013-07-03 01:57:00,76.0,74.8,30.08,NE,53,0.5,1.2,96,0.00,,,0.00,0.0,WeatherDisplay:10.37,2013-07-03 05:57:00,
2013-07-03 01:58:00,76.0,74.8,30.08,NE,55,1.3,3.5,96,0.00,,,0.00,0.0,WeatherDisplay:10.37,2013-07-03 05:58:00,
2013-07-03 02:03:00,75.9,74.7,30.08,NE,44,1.3,3.5,96,0.00,,,0.00,0.0,WeatherDisplay:10.37,2013-07-03 06:03:00,
2013-07-03 02:04:00,75.9,74.7,30.08,ESE,116,1.9,3.5,96,0.00,,,0.00,0.0,WeatherDisplay:10.37,2013-07-03 06:04:00,
2013-07-03 02:09:00,75.8,74.6,30.07,ESE,119,0.1,1.2,96,0.00,,,0.00,0.0,WeatherDisplay:10.37,2013-07-03 06:09:00,
2013-07-03 02:13:00,75.7,74.5,30.07,ESE,121,0.5,1.2,96,0.00,,,0.00,0.0,WeatherDisplay:10.37,2013-07-03 06:13:00,
2013-07-03 02:17:00,75.6,74.4,30.07,ESE,121,0.0,1.2,96,0.00,,,0.00,0.0,WeatherDisplay:10.37,2013-07-03 06:17:00,
2013-07-03 02:22:00,75.5,74.3,30.07,ESE,110,0.0,1.2,96,0.00,,,0.00,0.0,WeatherDisplay:10.37,2013-07-03 06:22:00,
2013-07-03 02:24:00,75.4,74.2,30.07,ESE,110,0.3,1.2,96,0.00,,,0.00,0.0,WeatherDisplay:10.37,2013-07-03 06:24:00,
2013-07-03 02:26:00,75.4,74.2,30.07,ESE,110,0.2,2.3,96,0.00,,,0.00,0.0,WeatherDisplay:10.37,2013-07-03 06:26:00,
2013-07-03 02:31:00,75.5,74.3,30.07,East,81,0.0,2.3,96,0.00,,,0.00,0.0,WeatherDisplay:10.37,2013-07-03 06:31:00,
2013-07-03 02:32:00,75.5,74.3,30.07,East,81,0.0,0.0,96,0.00,,,0.00,0.0,WeatherDisplay:10.37,2013-07-03 06:32:00,
2013-07-03 02:37:00,75.5,74.3,30.07,ESE,109,1.6,4.6,96,0.00,,,0.00,0.0,WeatherDisplay:10.37,2013-07-03 06:37:00,
2013-07-03 02:42:00,75.5,74.3,30.07,ESE,121,1.9,3.5,96,0.00,,,0.00,0.0,WeatherDisplay:10.37,2013-07-03 06:42:00,
2013-07-03 02:44:00,75.6,74.4,30.07,ENE,57,0.4,4.0,96,0.00,,,0.00,0.0,WeatherDisplay:10.37,2013-07-03 06:44:00,
2013-07-03 02:50:00,75.6,74.4,30.06,SE,125,1.1,5.0,96,0.00,,,0.00,0.0,WeatherDisplay:10.37,2013-07-03 06:50:00,
2013-07-03 02:55:00,75.7,74.5,30.07,SE,139,0.6,3.5,96,0.00,,,0.00,0.0,WeatherDisplay:10.37,2013-07-03 06:55:00,
2013-07-03 02:56:00,75.8,74.3,30.07,SE,139,0.3,2.3,95,0.00,,,0.00,0.0,WeatherDisplay:10.37,2013-07-03 06:56:00,
2013-07-03 03:02:00,75.9,74.4,30.06,East,96,1.7,5.0,95,0.00,,,0.00,0.0,WeatherDisplay:10.37,2013-07-03 07:02:00,
2013-07-03 03:07:00,75.9,74.4,30.06,ESE,104,0.4,3.5,95,0.00,,,0.00,0.0,WeatherDisplay:10.37,2013-07-03 07:07:00,
2013-07-03 03:12:00,76.0,74.1,30.06,SE,129,0.0,1.2,94,0.00,,,0.00,0.0,WeatherDisplay:10.37,2013-07-03 07:12:00,
2013-07-03 03:17:00,76.0,74.1,30.06,SE,133,0.9,3.5,94,0.00,,,0.00,0.0,WeatherDisplay:10.37,2013-07-03 07:17:00,
2013-07-03 03:22:00,76.0,74.1,30.07,ESE,106,1.8,3.5,94,0.00,,,0.00,0.0,WeatherDisplay:10.37,2013-07-03 07:22:00,
2013-07-03 03:28:00,76.1,74.2,30.07,SE,138,0.1,1.2,94,0.00,,,0.00,0.0,WeatherDisplay:10.37,2013-07-03 07:28:00,
2013-07-03 03:34:00,76.1,74.2,30.07,East,79,3.1,7.0,94,0.00,,,0.00,0.0,WeatherDisplay:10.37,2013-07-03 07:34:00,
2013-07-03 03:39:00,76.2,74.3,30.06,SE,124,0.7,2.3,94,0.00,,,0.00,0.0,WeatherDisplay:10.37,2013-07-03 07:39:00,
2013-07-03 03:45:00,76.3,74.1,30.06,SE,142,1.4,3.5,93,0.00,,,0.00,0.0,WeatherDisplay:10.37,2013-07-03 07:45:00,
2013-07-03 03:50:00,76.2,74.0,30.06,SE,145,1.9,4.0,93,0.00,,,0.00,0.0,WeatherDisplay:10.37,2013-07-03 07:50:00,
2013-07-03 03:55:00,76.2,74.0,30.06,South,188,2.5,6.0,93,0.00,,,0.00,0.0,WeatherDisplay:10.37,2013-07-03 07:55:00,
2013-07-03 04:00:00,76.2,73.7,30.07,SSE,150,2.4,5.0,92,0.00,,,0.00,0.0,WeatherDisplay:10.37,2013-07-03 08:00:00,
2013-07-03 04:01:00,76.2,73.7,30.07,SSE,153,1.2,4.6,92,0.00,,,0.00,0.0,WeatherDisplay:10.37,2013-07-03 08:01:00,
2013-07-03 04:06:00,76.2,73.7,30.06,SE,133,1.5,4.6,92,0.00,,,0.00,0.0,WeatherDisplay:10.37,2013-07-03 08:06:00,
2013-07-03 04:09:00,76.3,73.8,30.06,SE,133,1.2,4.6,92,0.00,,,0.00,0.0,WeatherDisplay:10.37,2013-07-03 08:09:00,
2013-07-03 04:15:00,76.2,73.7,30.06,SE,134,0.4,3.5,92,0.00,,,0.00,0.0,WeatherDisplay:10.37,2013-07-03 08:15:00,
2013-07-03 04:20:00,76.1,73.6,30.06,East,90,0.1,2.3,92,0.00,,,0.00,0.0,WeatherDisplay:10.37,2013-07-03 08:20:00,
2013-07-03 04:26:00,75.9,73.4,30.06,SSE,165,0.1,3.5,92,0.00,,,0.00,0.0,WeatherDisplay:10.37,2013-07-03 08:26:00,
2013-07-03 04:31:00,75.9,73.4,30.06,SSE,160,1.1,4.0,92,0.00,,,0.00,0.0,WeatherDisplay:10.37,2013-07-03 08:31:00,
2013-07-03 04:37:00,75.9,73.4,30.06,SE,129,0.9,6.9,92,0.00,,,0.00,0.0,WeatherDisplay:10.37,2013-07-03 08:37:00,
2013-07-03 04:39:00,76.0,73.5,30.06,SE,124,1.0,3.5,92,0.00,,,0.00,0.0,WeatherDisplay:10.37,2013-07-03 08:39:00,
2013-07-03 04:44:00,76.0,73.5,30.06,ESE,119,0.7,3.5,92,0.00,,,0.00,0.0,WeatherDisplay:10.37,2013-07-03 08:44:00,
2013-07-03 04:45:00,76.0,73.5,30.06,East,88,1.0,3.5,92,0.00,,,0.00,0.0,WeatherDisplay:10.37,2013-07-03 08:45:00,
2013-07-03 04:50:00,76.0,73.5,30.06,ESE,122,0.6,2.3,92,0.00,,,0.00,0.0,WeatherDisplay:10.37,2013-07-03 08:50:00,
2013-07-03 04:54:00,76.0,73.5,30.06,SE,126,1.6,4.6,92,0.00,,,0.00,0.0,WeatherDisplay:10.37,2013-07-03 08:54:00,
2013-07-03 04:55:00,76.0,73.8,30.06,East,90,1.9,4.6,93,0.00,,,0.00,0.0,WeatherDisplay:10.37,2013-07-03 08:55:00,
2013-07-03 05:01:00,76.0,73.8,30.06,NE,54,1.7,4.0,93,0.00,,,0.00,0.0,WeatherDisplay:10.37,2013-07-03 09:01:00,
2013-07-03 05:06:00,76.0,73.8,30.06,SE,136,0.4,1.2,93,0.00,,,0.00,0.0,WeatherDisplay:10.37,2013-07-03 09:06:00,
2013-07-03 05:12:00,76.0,73.8,30.06,SE,132,0.6,4.0,93,0.00,,,0.00,0.0,WeatherDisplay:10.37,2013-07-03 09:12:00,
2013-07-03 05:17:00,76.0,73.8,30.06,SE,134,0.9,3.5,93,0.00,,,0.00,0.0,WeatherDisplay:10.37,2013-07-03 09:17:00,
2013-07-03 05:22:00,76.0,73.8,30.06,East,98,0.7,2.0,93,0.00,,,0.00,0.0,WeatherDisplay:10.37,2013-07-03 09:22:00,
2013-07-03 05:27:00,76.0,73.8,30.07,SSE,147,0.6,3.5,93,0.00,,,0.00,0.0,WeatherDisplay:10.37,2013-07-03 09:27:00,
2013-07-03 05:32:00,76.0,74.1,30.07,ESE,117,0.5,6.9,94,0.00,,,0.00,0.0,WeatherDisplay:10.37,2013-07-03 09:32:00,
2013-07-03 05:38:00,76.0,74.1,30.06,SE,130,0.8,3.5,94,0.00,,,0.00,0.0,WeatherDisplay:10.37,2013-07-03 09:38:00,
2013-07-03 05:41:00,76.0,74.1,30.06,NE,48,1.4,4.0,94,0.00,,,0.00,0.0,WeatherDisplay:10.37,2013-07-03 09:41:00,
2013-07-03 05:46:00,76.0,74.1,30.06,ESE,123,0.9,3.5,94,0.00,,,0.00,0.0,WeatherDisplay:10.37,2013-07-03 09:46:00,
2013-07-03 05:50:00,76.0,74.1,30.06,ESE,109,2.3,8.0,94,0.00,,,0.00,0.0,WeatherDisplay:10.37,2013-07-03 09:50:00,
2013-07-03 05:56:00,76.0,74.1,30.06,SSE,164,0.7,3.5,94,0.00,,,0.00,0.0,WeatherDisplay:10.37,2013-07-03 09:56:00,
2013-07-03 06:02:00,76.0,74.1,30.06,SE,136,2.0,3.5,94,0.00,,,0.00,0.0,WeatherDisplay:10.37,2013-07-03 10:02:00,
2013-07-03 06:04:00,76.0,74.1,30.06,East,96,2.0,6.0,94,0.00,,,0.00,0.0,WeatherDisplay:10.37,2013-07-03 10:04:00,
2013-07-03 06:05:00,76.0,74.1,30.06,ESE,111,1.0,5.8,94,0.00,,,0.00,0.0,WeatherDisplay:10.37,2013-07-03 10:05:00,
2013-07-03 06:10:00,76.0,74.1,30.06,East,90,1.2,3.5,94,0.00,,,0.00,0.0,WeatherDisplay:10.37,2013-07-03 10:10:00,
2013-07-03 06:15:00,76.0,74.1,30.06,East,90,0.5,2.3,94,0.00,,,0.00,0.0,WeatherDisplay:10.37,2013-07-03 10:15:00,
2013-07-03 06:21:00,76.1,74.2,30.06,East,90,1.1,3.5,94,0.00,,,0.00,0.0,WeatherDisplay:10.37,2013-07-03 10:21:00,
2013-07-03 06:26:00,76.1,74.2,30.06,ESE,106,0.0,0.0,94,0.00,,,0.00,0.0,WeatherDisplay:10.37,2013-07-03 10:26:00,
2013-07-03 06:31:00,76.1,74.2,30.06,ESE,103,0.7,3.5,94,0.00,,,0.00,0.0,WeatherDisplay:10.37,2013-07-03 10:31:00,
2013-07-03 06:36:00,76.1,74.2,30.06,SE,139,0.4,5.8,94,0.00,,,0.00,0.0,WeatherDisplay:10.37,2013-07-03 10:36:00,
2013-07-03 06:41:00,76.2,74.3,30.07,SE,129,0.1,1.2,94,0.00,,,0.00,0.0,WeatherDisplay:10.37,2013-07-03 10:41:00,
2013-07-03 06:46:00,76.3,74.8,30.07,ESE,109,0.7,4.6,95,0.00,,,0.00,7.0,WeatherDisplay:10.37,2013-07-03 10:46:00,
2013-07-03 06:49:00,76.3,74.8,30.07,East,96,2.5,5.8,95,0.00,,,0.00,9.0,WeatherDisplay:10.37,2013-07-03 10:49:00,
2013-07-03 06:54:00,76.4,74.9,30.07,SSE,158,2.2,7.0,95,0.00,,,0.00,12.0,WeatherDisplay:10.37,2013-07-03 10:54:00,
2013-07-03 06:56:00,76.5,75.0,30.07,SSE,153,1.7,6.9,95,0.00,,,0.00,16.0,WeatherDisplay:10.37,2013-07-03 10:56:00,
2013-07-03 06:58:00,76.5,75.0,30.07,SE,141,0.9,3.5,95,0.00,,,0.00,19.0,WeatherDisplay:10.37,2013-07-03 10:58:00,
2013-07-03 07:03:00,76.6,75.4,30.07,ENE,57,1.6,3.5,96,0.00,,,0.00,25.0,WeatherDisplay:10.37,2013-07-03 11:03:00,
2013-07-03 07:08:00,76.6,75.4,30.07,SE,135,0.9,3.5,96,0.00,,,0.00,32.0,WeatherDisplay:10.37,2013-07-03 11:08:00,
2013-07-03 07:09:00,76.7,75.5,30.07,East,94,2.2,4.0,96,0.00,,,0.00,33.0,WeatherDisplay:10.37,2013-07-03 11:09:00,
2013-07-03 07:14:00,76.7,75.5,30.07,East,100,1.0,4.0,96,0.00,,,0.00,37.0,WeatherDisplay:10.37,2013-07-03 11:14:00,
2013-07-03 07:19:00,76.8,75.6,30.08,East,96,2.4,8.1,96,0.00,,,0.00,32.0,WeatherDisplay:10.37,2013-07-03 11:19:00,
2013-07-03 07:23:00,76.9,75.7,30.08,ESE,119,0.0,2.3,96,0.00,,,0.00,28.0,WeatherDisplay:10.37,2013-07-03 11:23:00,
2013-07-03 07:25:00,76.9,75.7,30.08,ESE,111,2.1,3.5,96,0.00,,,0.00,28.0,WeatherDisplay:10.37,2013-07-03 11:25:00,
2013-07-03 07:31:00,76.9,75.7,30.08,ESE,123,0.3,3.5,96,0.00,,,0.00,33.0,WeatherDisplay:10.37,2013-07-03 11:31:00,
2013-07-03 07:36:00,76.9,75.7,30.08,SE,137,2.0,4.0,96,0.00,,,0.00,47.0,WeatherDisplay:10.37,2013-07-03 11:36:00,
2013-07-03 07:42:00,76.9,75.7,30.08,ESE,115,3.2,6.9,96,0.00,,,0.00,65.0,WeatherDisplay:10.37,2013-07-03 11:42:00,
2013-07-03 07:45:00,76.9,75.7,30.08,ENE,71,0.7,4.6,96,0.00,,,0.00,70.0,WeatherDisplay:10.37,2013-07-03 11:45:00,
2013-07-03 07:50:00,77.0,75.8,30.08,SE,134,1.8,6.0,96,0.00,,,0.00,81.0,WeatherDisplay:10.37,2013-07-03 11:50:00,
2013-07-03 07:55:00,77.1,75.6,30.09,ESE,103,0.5,4.6,95,0.00,,,0.00,88.0,WeatherDisplay:10.37,2013-07-03 11:55:00,
2013-07-03 07:59:00,77.3,75.8,30.09,SSE,148,1.6,3.5,95,0.00,,,0.00,97.0,WeatherDisplay:10.37,2013-07-03 11:59:00,
2013-07-03 08:02:00,77.4,75.9,30.09,SE,146,2.6,8.1,95,0.00,OVC,,0.00,97.0,WeatherDisplay:10.37,2013-07-03 12:02:00,
2013-07-03 08:07:00,77.5,76.0,30.09,ESE,113,2.0,3.5,95,0.00,OVC,,0.00,88.0,WeatherDisplay:10.37,2013-07-03 12:07:00,
2013-07-03 08:12:00,77.5,76.0,30.09,East,99,2.6,6.9,95,0.00,OVC,,0.00,84.0,WeatherDisplay:10.37,2013-07-03 12:12:00,
2013-07-03 08:17:00,77.7,76.2,30.10,SE,136,0.8,3.5,95,0.00,OVC,,0.00,91.0,WeatherDisplay:10.37,2013-07-03 12:17:00,
2013-07-03 08:18:00,77.7,76.2,30.10,ESE,108,0.5,3.5,95,0.00,OVC,,0.00,93.0,WeatherDisplay:10.37,2013-07-03 12:18:00,
2013-07-03 08:21:00,77.8,76.3,30.10,East,101,1.4,4.6,95,0.00,OVC,,0.00,100.0,WeatherDisplay:10.37,2013-07-03 12:21:00,
2013-07-03 08:26:00,77.9,76.4,30.10,ESE,113,1.5,5.0,95,0.00,OVC,,0.00,114.0,WeatherDisplay:10.37,2013-07-03 12:26:00,
2013-07-03 08:31:00,78.1,76.2,30.10,East,101,2.2,6.0,94,0.00,OVC,,0.00,125.0,WeatherDisplay:10.37,2013-07-03 12:31:00,
2013-07-03 08:37:00,78.3,76.4,30.10,ENE,65,3.6,8.1,94,0.00,OVC,,0.00,137.0,WeatherDisplay:10.37,2013-07-03 12:37:00,
2013-07-03 08:42:00,78.5,76.6,30.10,ESE,116,0.2,3.5,94,0.00,OVC,,0.00,160.0,WeatherDisplay:10.37,2013-07-03 12:42:00,
2013-07-03 08:46:00,78.5,76.6,30.10,ENE,69,2.4,5.8,94,0.00,OVC,,0.00,142.0,WeatherDisplay:10.37,2013-07-03 12:46:00,
2013-07-03 08:53:00,78.8,76.9,30.09,NE,34,1.8,3.5,94,0.00,OVC,,0.00,176.0,WeatherDisplay:10.37,2013-07-03 12:53:00,
2013-07-03 08:58:00,78.9,76.7,30.09,ESE,123,3.4,7.0,93,0.00,OVC,,0.00,174.0,WeatherDisplay:10.37,2013-07-03 12:58:00,
2013-07-03 09:03:00,79.0,76.8,30.10,South,173,3.5,8.1,93,0.00,OVC,,0.00,169.0,WeatherDisplay:10.37,2013-07-03 13:03:00,
2013-07-03 09:09:00,79.0,76.8,30.10,SE,144,4.2,10.4,93,0.00,OVC,,0.00,156.0,WeatherDisplay:10.37,2013-07-03 13:09:00,
2013-07-03 09:14:00,79.1,76.9,30.10,NE,45,2.7,5.0,93,0.00,OVC,,0.00,146.0,WeatherDisplay:10.37,2013-07-03 13:14:00,
2013-07-03 09:19:00,79.2,77.0,30.10,East,100,3.5,8.0,93,0.00,OVC,,0.00,134.0,WeatherDisplay:10.37,2013-07-03 13:19:00,
2013-07-03 09:25:00,79.2,77.0,30.10,East,92,0.3,5.8,93,0.00,OVC,,0.00,141.0,WeatherDisplay:10.37,2013-07-03 13:25:00,
2013-07-03 09:30:00,79.3,77.1,30.10,SSE,162,1.6,4.0,93,0.00,OVC,,0.00,155.0,WeatherDisplay:10.37,2013-07-03 13:30:00,
2013-07-03 09:35:00,79.3,77.1,30.10,SSE,167,3.0,8.1,93,0.00,OVC,,0.00,165.0,WeatherDisplay:10.37,2013-07-03 13:35:00,
2013-07-03 09:41:00,79.5,77.3,30.10,SSE,164,0.8,8.1,93,0.00,OVC,,0.00,188.0,WeatherDisplay:10.37,2013-07-03 13:41:00,
2013-07-03 09:47:00,79.8,77.6,30.10,SE,145,2.8,8.0,93,0.00,OVC,,0.00,207.0,WeatherDisplay:10.37,2013-07-03 13:47:00,
2013-07-03 09:53:00,80.2,77.7,30.10,ENE,67,2.2,6.0,92,0.00,OVC,,0.00,220.0,WeatherDisplay:10.37,2013-07-03 13:53:00,
2013-07-03 09:58:00,80.4,77.5,30.10,SSE,154,2.4,9.0,91,0.00,OVC,,0.00,236.0,WeatherDisplay:10.37,2013-07-03 13:58:00,
2013-07-03 10:03:00,80.6,77.7,30.10,South,183,3.2,9.2,91,0.00,OVC,,0.00,250.0,WeatherDisplay:10.37,2013-07-03 14:03:00,
2013-07-03 10:06:00,80.7,77.8,30.10,SSE,153,2.7,5.0,91,0.00,OVC,,0.00,251.0,WeatherDisplay:10.37,2013-07-03 14:06:00,
2013-07-03 10:10:00,80.8,77.6,30.10,ESE,123,3.4,7.0,90,0.00,OVC,,0.00,253.0,WeatherDisplay:10.37,2013-07-03 14:10:00,
2013-07-03 10:15:00,81.2,78.0,30.10,SE,139,1.1,5.8,90,0.00,OVC,,0.00,258.0,WeatherDisplay:10.37,2013-07-03 14:15:00,
2013-07-03 10:18:00,81.4,78.2,30.10,SSE,159,2.0,8.1,90,0.00,OVC,,0.00,264.0,WeatherDisplay:10.37,2013-07-03 14:18:00,
2013-07-03 10:23:00,81.5,77.9,30.10,ESE,113,2.8,9.0,89,0.00,OVC,,0.00,274.0,WeatherDisplay:10.37,2013-07-03 14:23:00,
2013-07-03 10:29:00,81.7,77.8,30.10,SE,138,2.7,8.1,88,0.00,OVC,,0.00,283.0,WeatherDisplay:10.37,2013-07-03 14:29:00,
2013-07-03 10:30:00,81.8,77.9,30.10,SE,128,5.3,8.1,88,0.00,OVC,,0.00,283.0,WeatherDisplay:10.37,2013-07-03 14:30:00,
2013-07-03 10:36:00,81.8,77.5,30.10,SE,126,2.6,11.5,87,0.00,OVC,,0.00,292.0,WeatherDisplay:10.37,2013-07-03 14:36:00,
2013-07-03 10:38:00,81.8,77.9,30.10,SSE,149,1.2,3.5,88,0.00,OVC,,0.00,297.0,WeatherDisplay:10.37,2013-07-03 14:38:00,
2013-07-03 10:42:00,81.8,77.5,30.10,South,169,4.2,10.4,87,0.00,OVC,,0.00,309.0,WeatherDisplay:10.37,2013-07-03 14:42:00,
2013-07-03 10:47:00,82.0,77.4,30.10,SSE,164,4.8,10.0,86,0.00,OVC,,0.00,322.0,WeatherDisplay:10.37,2013-07-03 14:47:00,
2013-07-03 10:52:00,82.1,77.5,30.10,SE,140,4.8,6.9,86,0.00,OVC,,0.00,323.0,WeatherDisplay:10.37,2013-07-03 14:52:00,
2013-07-03 10:57:00,82.3,77.0,30.11,ESE,109,4.1,8.1,84,0.00,OVC,,0.00,336.0,WeatherDisplay:10.37,2013-07-03 14:57:00,
2013-07-03 11:01:00,82.5,77.5,30.11,ENE,63,1.6,8.0,85,0.00,OVC,,0.00,359.0,WeatherDisplay:10.37,2013-07-03 15:01:00,
2013-07-03 11:03:00,82.7,77.7,30.11,South,178,4.6,9.2,85,0.00,OVC,,0.00,425.0,WeatherDisplay:10.37,2013-07-03 15:03:00,
2013-07-03 11:05:00,82.8,77.5,30.10,ENE,61,6.3,8.1,84,0.00,OVC,,0.00,446.0,WeatherDisplay:10.37,2013-07-03 15:05:00,
2013-07-03 11:10:00,83.3,77.6,30.11,ESE,119,4.0,9.2,83,0.00,OVC,,0.00,401.0,WeatherDisplay:10.37,2013-07-03 15:10:00,
2013-07-03 11:15:00,83.2,77.5,30.10,South,175,2.6,5.8,83,0.00,OVC,,0.00,325.0,WeatherDisplay:10.37,2013-07-03 15:15:00,
2013-07-03 11:20:00,83.4,77.3,30.10,ESE,121,3.9,6.0,82,0.00,OVC,,0.00,309.0,WeatherDisplay:10.37,2013-07-03 15:20:00,
2013-07-03 11:25:00,83.0,77.3,30.10,South,186,3.7,5.8,83,0.00,OVC,,0.00,308.0,WeatherDisplay:10.37,2013-07-03 15:25:00,
2013-07-03 11:30:00,82.9,77.6,30.10,ENE,70,2.6,6.0,84,0.00,OVC,,0.00,320.0,WeatherDisplay:10.37,2013-07-03 15:30:00,
2013-07-03 11:35:00,83.1,77.4,30.10,SE,134,2.9,6.9,83,0.00,OVC,,0.00,367.0,WeatherDisplay:10.37,2013-07-03 15:35:00,
2013-07-03 11:40:00,83.4,78.1,30.10,SSW,200,2.2,3.0,84,0.00,OVC,,0.00,462.0,WeatherDisplay:10.37,2013-07-03 15:40:00,
2013-07-03 11:41:00,83.5,78.2,30.10,SSE,168,3.1,7.0,84,0.00,OVC,,0.00,480.0,WeatherDisplay:10.37,2013-07-03 15:41:00,
2013-07-03 11:46:00,84.5,78.8,30.10,ESE,123,0.4,4.6,83,0.00,OVC,,0.00,517.0,WeatherDisplay:10.37,2013-07-03 15:46:00,
2013-07-03 11:52:00,85.0,78.1,30.10,SE,146,4.0,6.9,80,0.00,OVC,,0.00,643.0,WeatherDisplay:10.37,2013-07-03 15:52:00,
2013-07-03 11:57:00,84.9,78.0,30.10,SE,131,5.2,10.4,80,0.00,OVC,,0.00,515.0,WeatherDisplay:10.37,2013-07-03 15:57:00,
2013-07-03 12:02:00,85.2,78.3,30.10,SSE,147,3.2,5.8,80,0.00,OVC,,0.00,601.0,WeatherDisplay:10.37,2013-07-03 16:02:00,
2013-07-03 12:07:00,85.3,78.4,30.10,ENE,68,2.4,4.0,80,0.00,OVC,,0.00,490.0,WeatherDisplay:10.37,2013-07-03 16:07:00,
2013-07-03 12:12:00,85.9,78.2,30.10,SSE,159,5.1,6.0,78,0.00,OVC,,0.00,475.0,WeatherDisplay:10.37,2013-07-03 16:12:00,
2013-07-03 12:17:00,85.5,78.6,30.10,SSW,210,3.1,10.4,80,0.00,OVC,,0.00,448.0,WeatherDisplay:10.37,2013-07-03 16:17:00,
2013-07-03 12:22:00,85.7,78.8,30.10,SE,141,1.9,8.1,80,0.00,OVC,,0.00,603.0,WeatherDisplay:10.37,2013-07-03 16:22:00,
2013-07-03 12:27:00,86.0,78.7,30.10,SE,142,6.7,9.0,79,0.00,OVC,,0.00,594.0,WeatherDisplay:10.37,2013-07-03 16:27:00,
2013-07-03 12:33:00,85.9,78.6,30.09,SSE,147,4.3,6.0,79,0.00,OVC,,0.00,795.0,WeatherDisplay:10.37,2013-07-03 16:33:00,
2013-07-03 12:38:00,86.8,78.3,30.09,SE,131,7.4,11.5,76,0.00,OVC,,0.00,919.0,WeatherDisplay:10.37,2013-07-03 16:38:00,
2013-07-03 12:44:00,87.9,78.6,30.09,SSE,166,3.7,9.2,74,0.00,OVC,,0.00,923.0,WeatherDisplay:10.37,2013-07-03 16:44:00,
2013-07-03 12:49:00,87.9,78.6,30.08,SSE,166,4.5,9.0,74,0.00,OVC,,0.00,984.0,WeatherDisplay:10.37,2013-07-03 16:49:00,
2013-07-03 12:54:00,89.0,79.6,30.08,SSE,147,4.9,8.0,74,0.00,OVC,,0.00,993.0,WeatherDisplay:10.37,2013-07-03 16:54:00,
2013-07-03 13:00:00,88.3,78.5,30.08,SE,135,2.4,10.4,73,0.00,OVC,,0.00,949.0,WeatherDisplay:10.37,2013-07-03 17:00:00,
2013-07-03 13:05:00,89.0,79.2,30.08,ESE,123,3.3,4.6,73,0.00,OVC,,0.00,714.0,WeatherDisplay:10.37,2013-07-03 17:05:00,
2013-07-03 13:10:00,88.1,78.3,30.08,SE,134,5.0,8.1,73,0.00,OVC,,0.00,860.0,WeatherDisplay:10.37,2013-07-03 17:10:00,
2013-07-03 13:15:00,88.3,77.7,30.09,South,173,6.3,11.5,71,0.00,OVC,,0.00,981.0,WeatherDisplay:10.37,2013-07-03 17:15:00,
2013-07-03 13:20:00,88.1,80.0,30.08,ESE,123,2.9,10.4,77,0.00,OVC,,0.00,223.0,WeatherDisplay:10.37,2013-07-03 17:20:00,
2013-07-03 13:25:00,85.3,78.4,30.09,SSE,163,1.6,5.8,80,0.02,RA,,0.02,239.0,WeatherDisplay:10.37,2013-07-03 17:25:00,
2013-07-03 13:30:00,82.8,78.5,30.08,SSW,193,2.5,4.6,87,0.03,RA,,0.03,406.0,WeatherDisplay:10.37,2013-07-03 17:30:00,
2013-07-03 13:36:00,82.6,79.7,30.08,SSE,153,2.2,4.6,91,0.03,RA,,0.03,893.0,WeatherDisplay:10.37,2013-07-03 17:36:00,
2013-07-03 13:42:00,84.5,81.9,30.08,SSE,150,2.6,7.0,92,0.03,OVC,,0.03,937.0,WeatherDisplay:10.37,2013-07-03 17:42:00,
2013-07-03 13:47:00,85.5,82.6,30.07,SSE,163,2.7,3.5,91,0.03,OVC,,0.03,935.0,WeatherDisplay:10.37,2013-07-03 17:47:00,
2013-07-03 13:52:00,86.1,81.4,30.07,SE,144,1.5,3.5,86,0.03,OVC,,0.03,951.0,WeatherDisplay:10.37,2013-07-03 17:52:00,
2013-07-03 13:57:00,87.5,81.7,30.07,South,185,4.1,6.9,83,0.03,OVC,,0.03,666.0,WeatherDisplay:10.37,2013-07-03 17:57:00,
2013-07-03 14:03:00,87.9,80.6,30.07,SSE,165,4.2,12.7,79,0.03,OVC,,0.03,1176.0,WeatherDisplay:10.37,2013-07-03 18:03:00,
2013-07-03 14:08:00,88.8,82.2,30.06,SE,138,1.5,6.0,81,0.03,OVC,,0.03,1072.0,WeatherDisplay:10.37,2013-07-03 18:08:00,
2013-07-03 14:14:00,89.7,80.3,30.06,East,93,4.7,8.1,74,0.03,OVC,,0.03,1090.0,WeatherDisplay:10.37,2013-07-03 18:14:00,
2013-07-03 14:19:00,89.5,79.3,30.06,SSE,164,6.3,11.5,72,0.03,OVC,,0.03,1076.0,WeatherDisplay:10.37,2013-07-03 18:19:00,
2013-07-03 14:24:00,90.0,78.9,30.05,South,170,5.7,9.2,70,0.03,OVC,,0.03,747.0,WeatherDisplay:10.37,2013-07-03 18:24:00,
2013-07-03 14:29:00,89.4,77.4,30.05,ESE,114,5.5,10.4,68,0.00,OVC,,0.03,953.0,WeatherDisplay:10.37,2013-07-03 18:29:00,
2013-07-03 14:35:00,89.0,77.5,30.05,SSW,205,3.8,9.2,69,0.00,OVC,,0.03,357.0,WeatherDisplay:10.37,2013-07-03 18:35:00,
2013-07-03 14:40:00,89.7,77.7,30.05,SSE,161,4.3,8.1,68,0.00,OVC,,0.03,1104.0,WeatherDisplay:10.37,2013-07-03 18:40:00,
2013-07-03 14:45:00,89.7,76.8,30.04,SE,142,4.9,10.4,66,0.00,OVC,,0.03,336.0,WeatherDisplay:10.37,2013-07-03 18:45:00,
2013-07-03 14:50:00,89.4,76.5,30.04,South,186,5.3,8.1,66,0.00,OVC,,0.03,1013.0,WeatherDisplay:10.37,2013-07-03 18:50:00,
2013-07-03 14:55:00,89.3,76.4,30.04,SSE,158,4.9,10.4,66,0.00,OVC,,0.03,260.0,WeatherDisplay:10.37,2013-07-03 18:55:00,
2013-07-03 15:00:00,88.9,77.0,30.04,South,175,2.4,10.4,68,0.00,OVC,,0.03,429.0,WeatherDisplay:10.37,2013-07-03 19:00:00,
2013-07-03 15:05:00,88.9,77.0,30.04,SW,225,5.4,10.4,68,0.00,OVC,,0.03,221.0,WeatherDisplay:10.37,2013-07-03 19:05:00,
2013-07-03 15:11:00,87.1,77.0,30.06,SE,142,7.7,11.5,72,0.00,OVC,,0.03,83.0,WeatherDisplay:10.37,2013-07-03 19:11:00,
2013-07-03 15:16:00,83.3,77.2,30.09,WNW,286,8.6,15.0,82,0.09,RA,,0.12,19.0,WeatherDisplay:10.37,2013-07-03 19:16:00,
2013-07-03 15:21:00,79.0,75.1,30.10,East,87,5.3,10.4,88,0.19,RA,,0.23,19.0,WeatherDisplay:10.37,2013-07-03 19:21:00,
2013-07-03 15:26:00,76.6,74.4,30.09,SE,144,0.5,3.5,93,0.31,RA,,0.36,14.0,WeatherDisplay:10.37,2013-07-03 19:26:00,
2013-07-03 15:31:00,75.3,74.1,30.08,WNW,300,0.4,3.5,96,0.44,RA,,0.48,12.0,WeatherDisplay:10.37,2013-07-03 19:31:00,
2013-07-03 15:37:00,75.2,74.3,30.09,SE,145,2.4,5.0,97,0.57,RA,,0.62,12.0,WeatherDisplay:10.37,2013-07-03 19:37:00,
2013-07-03 15:42:00,75.2,74.6,30.10,South,185,6.1,11.5,98,0.71,RA,,0.74,9.0,WeatherDisplay:10.37,2013-07-03 19:42:00,
2013-07-03 15:47:00,73.6,72.4,30.10,South,173,7.3,10.4,96,0.83,RA,,0.86,7.0,WeatherDisplay:10.37,2013-07-03 19:47:00,
2013-07-03 15:52:00,72.8,71.9,30.10,East,96,1.9,5.8,97,0.94,RA,,0.97,9.0,WeatherDisplay:10.37,2013-07-03 19:52:00,
2013-07-03 15:57:00,72.7,72.1,30.08,East,80,0.0,0.0,98,1.05,RA,,1.08,9.0,WeatherDisplay:10.37,2013-07-03 19:57:00,
2013-07-03 16:02:00,72.8,72.5,30.08,SE,128,1.0,2.3,99,1.15,RA,,1.20,12.0,WeatherDisplay:10.37,2013-07-03 20:02:00,
2013-07-03 16:07:00,73.0,72.7,30.08,SE,126,0.9,2.3,99,1.25,RA,,1.29,12.0,WeatherDisplay:10.37,2013-07-03 20:07:00,
2013-07-03 16:13:00,72.9,72.6,30.07,SSE,150,0.3,3.5,99,1.31,RA,,1.38,14.0,WeatherDisplay:10.37,2013-07-03 20:13:00,
2013-07-03 16:18:00,72.9,72.6,30.07,SSE,165,2.1,3.5,99,1.30,RA,,1.47,21.0,WeatherDisplay:10.37,2013-07-03 20:18:00,
2013-07-03 16:23:00,72.9,72.6,30.07,SSE,157,1.4,4.6,99,1.27,RA,,1.55,25.0,WeatherDisplay:10.37,2013-07-03 20:23:00,
2013-07-03 16:28:00,73.1,72.8,30.08,SSW,203,2.9,4.6,99,1.23,RA,,1.62,33.0,WeatherDisplay:10.37,2013-07-03 20:28:00,
2013-07-03 16:33:00,73.4,73.1,30.08,South,175,2.6,6.0,99,1.17,RA,,1.70,35.0,WeatherDisplay:10.37,2013-07-03 20:33:00,
2013-07-03 16:38:00,73.5,73.2,30.08,SSW,206,2.2,5.8,99,1.12,RA,,1.78,18.0,WeatherDisplay:10.37,2013-07-03 20:38:00,
2013-07-03 16:43:00,73.7,73.4,30.09,South,186,3.4,4.6,99,1.07,RA,,1.84,7.0,WeatherDisplay:10.37,2013-07-03 20:43:00,
2013-07-03 16:48:00,73.8,73.5,30.09,SW,226,3.6,5.8,99,1.01,RA,,1.90,7.0,WeatherDisplay:10.37,2013-07-03 20:48:00,
2013-07-03 16:53:00,74.3,74.3,30.09,SSE,167,5.3,10.4,100,0.95,RA,,1.96,11.0,WeatherDisplay:10.37,2013-07-03 20:53:00,
2013-07-03 16:58:00,74.5,74.5,30.09,SSE,154,3.7,5.8,100,0.90,RA,,2.02,11.0,WeatherDisplay:10.37,2013-07-03 20:58:00,
2013-07-03 17:04:00,74.6,74.6,30.08,SW,216,6.4,11.5,100,0.85,RA,,2.07,11.0,WeatherDisplay:10.37,2013-07-03 21:04:00,
2013-07-03 17:09:00,74.4,74.1,30.09,South,171,5.5,8.1,99,0.80,RA,,2.11,12.0,WeatherDisplay:10.37,2013-07-03 21:09:00,
2013-07-03 17:14:00,74.2,73.9,30.08,SSW,202,2.1,11.5,99,0.78,RA,,2.16,9.0,WeatherDisplay:10.37,2013-07-03 21:14:00,
2013-07-03 17:19:00,73.8,73.5,30.08,SSE,157,1.4,3.5,99,0.75,RA,,2.22,12.0,WeatherDisplay:10.37,2013-07-03 21:19:00,
2013-07-03 17:25:00,73.8,73.5,30.09,SE,144,3.1,4.6,99,0.71,RA,,2.27,14.0,WeatherDisplay:10.37,2013-07-03 21:25:00,
2013-07-03 17:30:00,73.8,73.8,30.09,South,171,1.9,3.5,100,0.68,RA,,2.32,16.0,WeatherDisplay:10.37,2013-07-03 21:30:00,
2013-07-03 17:35:00,73.9,73.9,30.08,SSE,165,2.6,5.8,100,0.65,RA,,2.36,16.0,WeatherDisplay:10.37,2013-07-03 21:35:00,
2013-07-03 17:40:00,74.0,74.0,30.08,SSE,159,0.3,2.3,100,0.62,RA,,2.40,16.0,WeatherDisplay:10.37,2013-07-03 21:40:00,
2013-07-03 17:45:00,74.2,74.2,30.07,SSE,167,1.4,3.5,100,0.60,RA,,2.44,16.0,WeatherDisplay:10.37,2013-07-03 21:45:00,
2013-07-03 17:50:00,74.3,74.3,30.07,SSE,148,1.6,3.5,100,0.57,RA,,2.47,18.0,WeatherDisplay:10.37,2013-07-03 21:50:00,
2013-07-03 17:55:00,74.4,74.4,30.07,SSE,161,2.6,4.0,100,0.53,RA,,2.51,21.0,WeatherDisplay:10.37,2013-07-03 21:55:00,
2013-07-03 18:00:00,74.6,74.6,30.08,SSE,165,2.0,3.5,100,0.51,RA,,2.54,23.0,WeatherDisplay:10.37,2013-07-03 22:00:00,
2013-07-03 18:06:00,74.6,74.6,30.07,South,186,0.4,3.5,100,0.48,RA,,2.56,26.0,WeatherDisplay:10.37,2013-07-03 22:06:00,
2013-07-03 18:11:00,74.8,74.8,30.07,South,186,0.9,3.5,100,0.45,RA,,2.57,30.0,WeatherDisplay:10.37,2013-07-03 22:11:00,
2013-07-03 18:16:00,74.9,74.9,30.07,SSW,195,2.8,5.8,100,0.39,RA,,2.57,33.0,WeatherDisplay:10.37,2013-07-03 22:16:00,
2013-07-03 18:22:00,75.0,75.0,30.07,SSW,206,1.1,2.3,100,0.33,BKN,,2.57,35.0,WeatherDisplay:10.37,2013-07-03 22:22:00,
2013-07-03 18:27:00,75.1,75.1,30.07,South,169,1.4,3.5,100,0.29,RA,,2.58,39.0,WeatherDisplay:10.37,2013-07-03 22:27:00,
2013-07-03 18:32:00,75.1,75.1,30.06,South,188,1.2,3.5,100,0.25,RA,,2.58,42.0,WeatherDisplay:10.37,2013-07-03 22:32:00,
2013-07-03 18:37:00,75.3,75.3,30.06,SE,144,0.8,3.5,100,0.20,BKN,,2.58,42.0,WeatherDisplay:10.37,2013-07-03 22:37:00,
2013-07-03 18:42:00,75.3,75.3,30.07,SSE,161,0.4,4.6,100,0.16,BKN,,2.58,40.0,WeatherDisplay:10.37,2013-07-03 22:42:00,
2013-07-03 18:48:00,75.4,75.4,30.07,SSE,161,0.0,0.0,100,0.12,BKN,,2.58,40.0,WeatherDisplay:10.37,2013-07-03 22:48:00,
2013-07-03 18:55:00,75.5,75.5,30.00,SSE,152,0.0,0.0,100,0.00,,,0.00,40,Wunderground v.1.15,2013-07-03 22:55:00,
2013-07-03 18:58:00,75.7,75.7,30.00,SSE,152,0.0,0.0,100,0.10,RA,,2.58,42.0,WeatherDisplay:10.37,2013-07-03 22:58:00,
2013-07-03 19:04:00,75.7,75.7,30.00,SSE,152,0.0,0.0,100,0.06,RA,,2.58,47.0,WeatherDisplay:10.37,2013-07-03 23:04:00,
2013-07-03 19:09:00,75.7,75.7,30.00,SSE,152,0.0,0.0,100,0.04,BKN,,2.58,49.0,WeatherDisplay:10.37,2013-07-03 23:09:00,
2013-07-03 19:14:00,75.8,75.8,30.00,SSE,152,0.0,1.2,100,0.02,BKN,,2.58,51.0,WeatherDisplay:10.37,2013-07-03 23:14:00,
2013-07-03 19:19:00,75.8,75.8,30.00,SSE,152,0.0,0.0,100,0.01,BKN,,2.58,51.0,WeatherDisplay:10.37,2013-07-03 23:19:00,
2013-07-03 19:24:00,76.0,76.0,30.00,SSE,151,0.2,1.0,100,0.01,BKN,,2.58,51.0,WeatherDisplay:10.37,2013-07-03 23:24:00,
2013-07-03 19:31:00,76.0,76.0,30.00,SSE,152,0.9,3.0,100,0.01,BKN,,2.58,47.0,WeatherDisplay:10.37,2013-07-03 23:31:00,
2013-07-03 19:36:00,76.0,76.0,30.01,SSE,152,0.0,0.0,100,0.00,BKN,,2.58,42.0,WeatherDisplay:10.37,2013-07-03 23:36:00,
2013-07-03 19:42:00,76.1,76.1,30.00,SSE,151,0.0,1.0,100,0.00,,,2.58,33.0,WeatherDisplay:10.37,2013-07-03 23:42:00,
2013-07-03 19:47:00,76.0,76.0,30.00,SSE,157,0.0,1.2,100,0.00,,,2.58,26.0,WeatherDisplay:10.37,2013-07-03 23:47:00,
2013-07-03 19:52:00,76.0,76.0,30.00,SSE,157,0.0,0.0,100,0.00,,,2.58,21.0,WeatherDisplay:10.37,2013-07-03 23:52:00,
2013-07-03 19:58:00,76.0,76.0,30.01,SSE,157,0.4,1.2,100,0.00,,,2.58,16.0,WeatherDisplay:10.37,2013-07-03 23:58:00,
2013-07-03 20:03:00,76.0,76.0,30.01,ESE,103,0.1,2.3,100,0.00,,,2.58,12.0,WeatherDisplay:10.37,2013-07-04 00:03:00,
2013-07-03 20:08:00,76.0,76.0,30.01,ESE,123,0.0,0.0,100,0.00,,,2.58,11.0,WeatherDisplay:10.37,2013-07-04 00:08:00,
2013-07-03 20:13:00,75.9,75.9,30.01,SSE,159,0.0,0.0,100,0.00,,,2.58,7.0,WeatherDisplay:10.37,2013-07-04 00:13:00,
2013-07-03 20:18:00,75.8,75.8,30.01,East,88,0.0,2.3,100,0.00,,,2.58,5.0,WeatherDisplay:10.37,2013-07-04 00:18:00,
2013-07-03 20:24:00,75.7,75.7,30.02,ESE,116,0.1,2.3,100,0.00,,,2.58,0.0,WeatherDisplay:10.37,2013-07-04 00:24:00,
2013-07-03 20:29:00,75.7,75.7,30.01,ESE,116,0.0,0.0,100,0.00,,,2.58,0.0,WeatherDisplay:10.37,2013-07-04 00:29:00,
2013-07-03 20:34:00,75.6,75.6,30.01,ESE,116,0.2,0.0,100,0.00,,,2.58,0.0,WeatherDisplay:10.37,2013-07-04 00:34:00,
2013-07-03 20:39:00,75.5,75.5,30.01,ESE,116,0.0,0.0,100,0.00,,,2.58,0.0,WeatherDisplay:10.37,2013-07-04 00:39:00,
2013-07-03 20:44:00,75.4,75.4,30.01,ESE,116,0.0,1.2,100,0.00,,,2.58,0.0,WeatherDisplay:10.37,2013-07-04 00:44:00,
2013-07-03 20:49:00,75.4,75.4,30.01,ESE,116,0.6,1.2,100,0.00,,,2.58,0.0,WeatherDisplay:10.37,2013-07-04 00:49:00,
2013-07-03 20:55:00,75.4,75.4,30.01,SE,130,0.1,3.5,100,0.00,,,2.58,0.0,WeatherDisplay:10.37,2013-07-04 00:55:00,
2013-07-03 21:00:00,75.4,75.4,30.01,ESE,111,0.5,1.2,100,0.00,,,2.58,0.0,WeatherDisplay:10.37,2013-07-04 01:00:00,
2013-07-03 21:05:00,75.3,75.3,30.01,ENE,69,0.2,2.3,100,0.00,,,2.58,0.0,WeatherDisplay:10.37,2013-07-04 01:05:00,
2013-07-03 21:10:00,75.3,75.3,30.01,NE,45,0.2,3.5,100,0.00,,,2.58,0.0,WeatherDisplay:10.37,2013-07-04 01:10:00,
2013-07-03 21:15:00,75.3,75.3,30.01,SSE,159,0.0,1.2,100,0.00,,,2.58,0.0,WeatherDisplay:10.37,2013-07-04 01:15:00,
2013-07-03 21:21:00,75.2,75.2,30.01,SE,132,0.3,1.2,100,0.00,,,2.58,0.0,WeatherDisplay:10.37,2013-07-04 01:21:00,
2013-07-03 21:27:00,75.2,75.2,30.02,SSE,151,1.1,4.0,100,0.00,,,2.58,0.0,WeatherDisplay:10.37,2013-07-04 01:27:00,
2013-07-03 21:32:00,75.2,75.2,30.02,ESE,121,0.0,1.2,100,0.00,,,2.58,0.0,WeatherDisplay:10.37,2013-07-04 01:32:00,
2013-07-03 21:37:00,75.2,75.2,30.03,ESE,119,0.6,3.0,100,0.00,,,2.58,0.0,WeatherDisplay:10.37,2013-07-04 01:37:00,
2013-07-03 21:42:00,75.2,75.2,30.03,ESE,104,1.3,3.5,100,0.00,,,2.58,0.0,WeatherDisplay:10.37,2013-07-04 01:42:00,
2013-07-03 21:48:00,75.2,75.2,30.03,East,96,0.5,3.5,100,0.00,,,2.58,0.0,WeatherDisplay:10.37,2013-07-04 01:48:00,
2013-07-03 21:53:00,75.2,75.2,30.03,East,96,0.0,1.2,100,0.00,,,2.58,0.0,WeatherDisplay:10.37,2013-07-04 01:53:00,
2013-07-03 21:58:00,75.2,75.2,30.03,East,101,0.0,0.0,100,0.00,,,2.58,0.0,WeatherDisplay:10.37,2013-07-04 01:58:00,
2013-07-03 22:03:00,75.2,75.2,30.03,East,101,0.0,0.0,100,0.00,,,2.58,0.0,WeatherDisplay:10.37,2013-07-04 02:03:00,
2013-07-03 22:08:00,75.1,75.1,30.03,ESE,115,0.0,1.2,100,0.00,,,2.58,0.0,WeatherDisplay:10.37,2013-07-04 02:08:00,
2013-07-03 22:14:00,75.2,75.2,30.04,ESE,106,0.1,5.0,100,0.00,,,2.58,0.0,WeatherDisplay:10.37,2013-07-04 02:14:00,
2013-07-03 22:19:00,75.2,75.2,30.04,ESE,117,0.9,4.6,100,0.00,,,2.58,0.0,WeatherDisplay:10.37,2013-07-04 02:19:00,
2013-07-03 22:24:00,75.2,75.2,30.04,SE,134,1.8,3.5,100,0.00,,,2.58,0.0,WeatherDisplay:10.37,2013-07-04 02:24:00,
2013-07-03 22:29:00,75.2,75.2,30.04,East,92,0.2,1.2,100,0.00,,,2.58,0.0,WeatherDisplay:10.37,2013-07-04 02:29:00,
2013-07-03 22:34:00,75.3,75.3,30.04,ESE,103,2.4,3.5,100,0.00,,,2.58,0.0,WeatherDisplay:10.37,2013-07-04 02:34:00,
2013-07-03 22:39:00,75.3,75.0,30.04,South,173,2.4,3.5,99,0.00,,,2.58,0.0,WeatherDisplay:10.37,2013-07-04 02:39:00,
2013-07-03 22:45:00,75.4,75.1,30.05,SSE,163,2.6,4.6,99,0.00,,,2.58,0.0,WeatherDisplay:10.37,2013-07-04 02:45:00,
2013-07-03 22:50:00,75.4,75.1,30.05,SE,136,0.7,1.2,99,0.00,,,2.58,0.0,WeatherDisplay:10.37,2013-07-04 02:50:00,
2013-07-03 22:55:00,75.4,75.1,30.05,SSE,168,0.4,2.3,99,0.00,,,2.58,0.0,WeatherDisplay:10.37,2013-07-04 02:55:00,
2013-07-03 23:00:00,75.4,75.1,30.05,SE,139,0.0,3.5,99,0.00,,,2.58,0.0,WeatherDisplay:10.37,2013-07-04 03:00:00,
2013-07-03 23:05:00,75.4,75.1,30.05,East,100,0.4,5.8,99,0.00,,,2.58,0.0,WeatherDisplay:10.37,2013-07-04 03:05:00,
2013-07-03 23:11:00,75.3,75.0,30.05,East,98,0.0,1.0,99,0.00,,,2.58,0.0,WeatherDisplay:10.37,2013-07-04 03:11:00,
2013-07-03 23:17:00,75.3,75.0,30.05,NE,55,2.5,7.0,99,0.00,,,2.58,0.0,WeatherDisplay:10.37,2013-07-04 03:17:00,
2013-07-03 23:22:00,75.3,75.0,30.05,SE,124,0.6,3.5,99,0.00,,,2.58,0.0,WeatherDisplay:10.37,2013-07-04 03:22:00,
2013-07-03 23:27:00,75.3,75.0,30.05,SE,132,0.3,1.2,99,0.00,,,2.58,0.0,WeatherDisplay:10.37,2013-07-04 03:27:00,
2013-07-03 23:32:00,75.3,75.0,30.05,SSE,166,0.3,5.8,99,0.00,,,2.58,0.0,WeatherDisplay:10.37,2013-07-04 03:32:00,
2013-07-03 23:37:00,75.2,74.9,30.05,SSE,166,0.0,1.0,99,0.00,,,2.58,0.0,WeatherDisplay:10.37,2013-07-04 03:37:00,
2013-07-03 23:43:00,75.1,74.8,30.05,ENE,78,0.7,3.0,99,0.00,,,2.58,0.0,WeatherDisplay:10.37,2013-07-04 03:43:00,
2013-07-03 23:48:00,75.1,74.8,30.06,ESE,105,0.1,2.3,99,0.00,,,2.58,0.0,WeatherDisplay:10.37,2013-07-04 03:48:00,
2013-07-03 23:54:00,75.1,74.8,30.07,ESE,123,1.4,3.5,99,0.00,,,2.58,0.0,WeatherDisplay:10.37,2013-07-04 03:54:00,
2013-07-03 23:59:00,75.2,74.9,30.07,ESE,115,0.1,4.6,99,0.00,,,2.58,0.0,WeatherDisplay:10.37,2013-07-04 03:59:00,